sensor_id;sensor_type;location;lat;lon;timestamp;P1;durP1;ratioP1;P2;durP2;ratioP2
72261;SDS011;60173;52.112;8.648;2023-11-21T00:01:58;54.63;;;28.27;;
72261;SDS011;60173;52.112;8.648;2023-11-21T00:04:24;53.80;;;27.95;;
72261;SDS011;60173;52.112;8.648;2023-11-21T00:06:51;65.40;;;30.92;;
72261;SDS011;60173;52.112;8.648;2023-11-21T00:09:17;57.58;;;29.73;;
72261;SDS011;60173;52.112;8.648;2023-11-21T00:11:44;68.80;;;31.27;;
72261;SDS011;60173;52.112;8.648;2023-11-21T00:14:11;54.45;;;28.88;;
72261;SDS011;60173;52.112;8.648;2023-11-21T00:16:37;68.88;;;32.30;;
72261;SDS011;60173;52.112;8.648;2023-11-21T00:19:04;56.88;;;30.65;;
72261;SDS011;60173;52.112;8.648;2023-11-21T00:21:30;59.72;;;30.15;;
72261;SDS011;60173;52.112;8.648;2023-11-21T00:23:57;61.90;;;30.98;;
72261;SDS011;60173;52.112;8.648;2023-11-21T00:26:23;58.42;;;31.80;;
72261;SDS011;60173;52.112;8.648;2023-11-21T00:28:50;61.28;;;30.50;;
72261;SDS011;60173;52.112;8.648;2023-11-21T00:31:16;56.83;;;29.23;;
72261;SDS011;60173;52.112;8.648;2023-11-21T00:33:43;59.03;;;30.35;;
72261;SDS011;60173;52.112;8.648;2023-11-21T00:36:10;56.13;;;27.67;;
72261;SDS011;60173;52.112;8.648;2023-11-21T00:38:36;57.55;;;28.17;;
72261;SDS011;60173;52.112;8.648;2023-11-21T00:41:03;58.13;;;28.40;;
72261;SDS011;60173;52.112;8.648;2023-11-21T00:43:29;63.40;;;28.48;;
72261;SDS011;60173;52.112;8.648;2023-11-21T00:45:56;60.50;;;28.77;;
72261;SDS011;60173;52.112;8.648;2023-11-21T00:48:22;62.45;;;29.30;;
72261;SDS011;60173;52.112;8.648;2023-11-21T00:50:48;53.83;;;26.88;;
72261;SDS011;60173;52.112;8.648;2023-11-21T00:53:15;51.25;;;27.60;;
72261;SDS011;60173;52.112;8.648;2023-11-21T00:55:42;62.33;;;29.38;;
72261;SDS011;60173;52.112;8.648;2023-11-21T00:58:08;57.95;;;27.15;;
72261;SDS011;60173;52.112;8.648;2023-11-21T01:00:35;59.65;;;26.77;;
72261;SDS011;60173;52.112;8.648;2023-11-21T01:03:01;49.80;;;25.23;;
72261;SDS011;60173;52.112;8.648;2023-11-21T01:05:28;53.70;;;26.05;;
72261;SDS011;60173;52.112;8.648;2023-11-21T01:07:54;53.83;;;25.85;;
72261;SDS011;60173;52.112;8.648;2023-11-21T01:10:21;46.30;;;23.70;;
72261;SDS011;60173;52.112;8.648;2023-11-21T01:12:47;55.67;;;26.52;;
72261;SDS011;60173;52.112;8.648;2023-11-21T01:15:14;55.65;;;24.55;;
72261;SDS011;60173;52.112;8.648;2023-11-21T01:17:40;56.08;;;26.23;;
72261;SDS011;60173;52.112;8.648;2023-11-21T01:20:07;52.97;;;26.55;;
72261;SDS011;60173;52.112;8.648;2023-11-21T01:22:34;55.00;;;25.92;;
72261;SDS011;60173;52.112;8.648;2023-11-21T01:25:01;50.97;;;24.30;;
72261;SDS011;60173;52.112;8.648;2023-11-21T01:27:27;52.10;;;24.38;;
72261;SDS011;60173;52.112;8.648;2023-11-21T01:29:54;54.75;;;24.40;;
72261;SDS011;60173;52.112;8.648;2023-11-21T01:32:20;51.63;;;25.10;;
72261;SDS011;60173;52.112;8.648;2023-11-21T01:34:47;50.58;;;25.48;;
72261;SDS011;60173;52.112;8.648;2023-11-21T01:37:14;55.83;;;24.35;;
72261;SDS011;60173;52.112;8.648;2023-11-21T01:39:40;47.60;;;23.17;;
72261;SDS011;60173;52.112;8.648;2023-11-21T01:42:07;53.25;;;24.48;;
72261;SDS011;60173;52.112;8.648;2023-11-21T01:44:33;53.78;;;24.33;;
72261;SDS011;60173;52.112;8.648;2023-11-21T01:47:00;51.00;;;22.30;;
72261;SDS011;60173;52.112;8.648;2023-11-21T01:49:27;43.63;;;21.35;;
72261;SDS011;60173;52.112;8.648;2023-11-21T01:51:53;51.45;;;25.55;;
72261;SDS011;60173;52.112;8.648;2023-11-21T01:54:20;52.45;;;24.10;;
72261;SDS011;60173;52.112;8.648;2023-11-21T01:56:46;50.35;;;24.67;;
72261;SDS011;60173;52.112;8.648;2023-11-21T01:59:14;53.78;;;24.80;;
72261;SDS011;60173;52.112;8.648;2023-11-21T02:01:45;51.83;;;23.75;;
72261;SDS011;60173;52.112;8.648;2023-11-21T02:04:12;49.15;;;24.65;;
72261;SDS011;60173;52.112;8.648;2023-11-21T02:06:39;48.03;;;23.38;;
72261;SDS011;60173;52.112;8.648;2023-11-21T02:09:06;54.90;;;24.27;;
72261;SDS011;60173;52.112;8.648;2023-11-21T02:11:32;50.35;;;23.77;;
72261;SDS011;60173;52.112;8.648;2023-11-21T02:13:59;52.97;;;24.77;;
72261;SDS011;60173;52.112;8.648;2023-11-21T02:16:25;49.15;;;25.52;;
72261;SDS011;60173;52.112;8.648;2023-11-21T02:18:52;55.22;;;26.08;;
72261;SDS011;60173;52.112;8.648;2023-11-21T02:21:19;54.25;;;25.42;;
72261;SDS011;60173;52.112;8.648;2023-11-21T02:23:45;53.05;;;24.77;;
72261;SDS011;60173;52.112;8.648;2023-11-21T02:26:12;63.17;;;24.40;;
72261;SDS011;60173;52.112;8.648;2023-11-21T02:28:39;44.60;;;22.40;;
72261;SDS011;60173;52.112;8.648;2023-11-21T02:31:06;50.42;;;25.33;;
72261;SDS011;60173;52.112;8.648;2023-11-21T02:33:33;48.67;;;23.63;;
72261;SDS011;60173;52.112;8.648;2023-11-21T02:36:00;53.90;;;23.92;;
72261;SDS011;60173;52.112;8.648;2023-11-21T02:38:28;53.05;;;24.25;;
72261;SDS011;60173;52.112;8.648;2023-11-21T02:40:56;55.65;;;23.95;;
72261;SDS011;60173;52.112;8.648;2023-11-21T02:43:23;51.40;;;22.98;;
72261;SDS011;60173;52.112;8.648;2023-11-21T02:45:50;56.22;;;23.02;;
72261;SDS011;60173;52.112;8.648;2023-11-21T02:48:16;62.10;;;23.70;;
72261;SDS011;60173;52.112;8.648;2023-11-21T02:50:43;51.15;;;22.80;;
72261;SDS011;60173;52.112;8.648;2023-11-21T02:53:09;57.42;;;24.17;;
72261;SDS011;60173;52.112;8.648;2023-11-21T02:55:36;51.53;;;24.02;;
72261;SDS011;60173;52.112;8.648;2023-11-21T02:58:03;48.17;;;22.73;;
72261;SDS011;60173;52.112;8.648;2023-11-21T03:00:29;58.47;;;23.35;;
72261;SDS011;60173;52.112;8.648;2023-11-21T03:02:56;48.55;;;22.88;;
72261;SDS011;60173;52.112;8.648;2023-11-21T03:05:23;45.83;;;21.33;;
72261;SDS011;60173;52.112;8.648;2023-11-21T03:07:50;54.38;;;23.58;;
72261;SDS011;60173;52.112;8.648;2023-11-21T03:10:16;48.78;;;22.50;;
72261;SDS011;60173;52.112;8.648;2023-11-21T03:12:43;53.78;;;21.45;;
72261;SDS011;60173;52.112;8.648;2023-11-21T03:15:09;68.68;;;25.67;;
72261;SDS011;60173;52.112;8.648;2023-11-21T03:17:36;53.17;;;23.35;;
72261;SDS011;60173;52.112;8.648;2023-11-21T03:20:03;57.90;;;22.63;;
72261;SDS011;60173;52.112;8.648;2023-11-21T03:22:31;57.28;;;24.63;;
72261;SDS011;60173;52.112;8.648;2023-11-21T03:24:57;55.50;;;22.50;;
72261;SDS011;60173;52.112;8.648;2023-11-21T03:27:24;53.90;;;23.10;;
72261;SDS011;60173;52.112;8.648;2023-11-21T03:29:50;43.47;;;20.65;;
72261;SDS011;60173;52.112;8.648;2023-11-21T03:32:17;50.28;;;22.17;;
72261;SDS011;60173;52.112;8.648;2023-11-21T03:34:56;53.63;;;24.02;;
72261;SDS011;60173;52.112;8.648;2023-11-21T03:37:25;48.45;;;21.27;;
72261;SDS011;60173;52.112;8.648;2023-11-21T03:39:52;63.88;;;25.00;;
72261;SDS011;60173;52.112;8.648;2023-11-21T03:42:19;64.80;;;24.77;;
72261;SDS011;60173;52.112;8.648;2023-11-21T03:44:45;52.63;;;23.65;;
72261;SDS011;60173;52.112;8.648;2023-11-21T03:47:12;55.97;;;22.75;;
72261;SDS011;60173;52.112;8.648;2023-11-21T03:49:38;66.43;;;26.58;;
72261;SDS011;60173;52.112;8.648;2023-11-21T03:52:05;60.22;;;24.90;;
72261;SDS011;60173;52.112;8.648;2023-11-21T03:54:31;65.00;;;26.08;;
72261;SDS011;60173;52.112;8.648;2023-11-21T03:56:58;66.55;;;27.08;;
72261;SDS011;60173;52.112;8.648;2023-11-21T03:59:24;75.30;;;26.48;;
72261;SDS011;60173;52.112;8.648;2023-11-21T04:01:51;65.03;;;25.42;;
72261;SDS011;60173;52.112;8.648;2023-11-21T04:04:17;68.38;;;24.73;;
72261;SDS011;60173;52.112;8.648;2023-11-21T04:06:44;65.00;;;26.38;;
72261;SDS011;60173;52.112;8.648;2023-11-21T04:09:10;68.75;;;26.33;;
72261;SDS011;60173;52.112;8.648;2023-11-21T04:11:37;61.97;;;25.75;;
72261;SDS011;60173;52.112;8.648;2023-11-21T04:14:03;64.13;;;24.60;;
72261;SDS011;60173;52.112;8.648;2023-11-21T04:16:30;60.25;;;23.98;;
72261;SDS011;60173;52.112;8.648;2023-11-21T04:18:56;71.45;;;25.25;;
72261;SDS011;60173;52.112;8.648;2023-11-21T04:21:23;66.85;;;25.20;;
72261;SDS011;60173;52.112;8.648;2023-11-21T04:23:49;61.13;;;24.00;;
72261;SDS011;60173;52.112;8.648;2023-11-21T04:26:16;63.40;;;23.95;;
72261;SDS011;60173;52.112;8.648;2023-11-21T04:28:42;58.72;;;24.58;;
72261;SDS011;60173;52.112;8.648;2023-11-21T04:31:09;71.63;;;26.73;;
72261;SDS011;60173;52.112;8.648;2023-11-21T04:33:35;68.25;;;25.85;;
72261;SDS011;60173;52.112;8.648;2023-11-21T04:36:02;61.90;;;23.80;;
72261;SDS011;60173;52.112;8.648;2023-11-21T04:38:28;67.43;;;23.38;;
72261;SDS011;60173;52.112;8.648;2023-11-21T04:40:55;49.08;;;21.40;;
72261;SDS011;60173;52.112;8.648;2023-11-21T04:43:21;53.67;;;22.05;;
72261;SDS011;60173;52.112;8.648;2023-11-21T04:45:48;62.72;;;23.45;;
72261;SDS011;60173;52.112;8.648;2023-11-21T04:48:14;56.97;;;23.17;;
72261;SDS011;60173;52.112;8.648;2023-11-21T04:50:41;58.40;;;22.80;;
72261;SDS011;60173;52.112;8.648;2023-11-21T04:53:07;56.58;;;21.92;;
72261;SDS011;60173;52.112;8.648;2023-11-21T04:55:34;49.08;;;20.75;;
72261;SDS011;60173;52.112;8.648;2023-11-21T04:58:00;63.53;;;22.80;;
72261;SDS011;60173;52.112;8.648;2023-11-21T05:00:27;61.53;;;22.98;;
72261;SDS011;60173;52.112;8.648;2023-11-21T05:02:53;65.63;;;23.92;;
72261;SDS011;60173;52.112;8.648;2023-11-21T05:05:20;68.30;;;23.85;;
72261;SDS011;60173;52.112;8.648;2023-11-21T05:07:46;61.33;;;22.67;;
72261;SDS011;60173;52.112;8.648;2023-11-21T05:10:13;62.63;;;23.52;;
72261;SDS011;60173;52.112;8.648;2023-11-21T05:12:40;61.33;;;21.65;;
72261;SDS011;60173;52.112;8.648;2023-11-21T05:15:07;68.78;;;23.58;;
72261;SDS011;60173;52.112;8.648;2023-11-21T05:17:34;62.60;;;22.55;;
72261;SDS011;60173;52.112;8.648;2023-11-21T05:20:01;63.95;;;23.58;;
72261;SDS011;60173;52.112;8.648;2023-11-21T05:22:28;57.60;;;20.90;;
72261;SDS011;60173;52.112;8.648;2023-11-21T05:24:54;49.65;;;20.90;;
72261;SDS011;60173;52.112;8.648;2023-11-21T05:27:21;54.60;;;21.73;;
72261;SDS011;60173;52.112;8.648;2023-11-21T05:29:47;51.92;;;21.70;;
72261;SDS011;60173;52.112;8.648;2023-11-21T05:32:14;57.28;;;22.55;;
72261;SDS011;60173;52.112;8.648;2023-11-21T05:34:40;59.75;;;22.92;;
72261;SDS011;60173;52.112;8.648;2023-11-21T05:37:07;53.10;;;20.92;;
72261;SDS011;60173;52.112;8.648;2023-11-21T05:39:33;49.90;;;21.88;;
72261;SDS011;60173;52.112;8.648;2023-11-21T05:42:00;58.95;;;23.25;;
72261;SDS011;60173;52.112;8.648;2023-11-21T05:44:26;59.05;;;22.83;;
72261;SDS011;60173;52.112;8.648;2023-11-21T05:46:53;47.60;;;20.23;;
72261;SDS011;60173;52.112;8.648;2023-11-21T05:49:19;54.38;;;22.02;;
72261;SDS011;60173;52.112;8.648;2023-11-21T05:51:46;53.38;;;21.92;;
72261;SDS011;60173;52.112;8.648;2023-11-21T05:54:12;57.53;;;23.55;;
72261;SDS011;60173;52.112;8.648;2023-11-21T05:56:39;62.58;;;23.73;;
72261;SDS011;60173;52.112;8.648;2023-11-21T05:59:05;68.90;;;24.15;;
72261;SDS011;60173;52.112;8.648;2023-11-21T06:01:32;59.15;;;24.65;;
72261;SDS011;60173;52.112;8.648;2023-11-21T06:03:58;55.67;;;22.52;;
72261;SDS011;60173;52.112;8.648;2023-11-21T06:06:25;48.80;;;21.05;;
72261;SDS011;60173;52.112;8.648;2023-11-21T06:08:52;58.45;;;23.20;;
72261;SDS011;60173;52.112;8.648;2023-11-21T06:11:18;54.05;;;23.50;;
72261;SDS011;60173;52.112;8.648;2023-11-21T06:13:44;54.33;;;24.42;;
72261;SDS011;60173;52.112;8.648;2023-11-21T06:16:11;58.35;;;24.52;;
72261;SDS011;60173;52.112;8.648;2023-11-21T06:18:38;55.13;;;24.02;;
72261;SDS011;60173;52.112;8.648;2023-11-21T06:21:04;53.03;;;24.52;;
72261;SDS011;60173;52.112;8.648;2023-11-21T06:23:31;66.18;;;25.70;;
72261;SDS011;60173;52.112;8.648;2023-11-21T06:25:57;58.85;;;25.25;;
72261;SDS011;60173;52.112;8.648;2023-11-21T06:28:24;62.35;;;24.95;;
72261;SDS011;60173;52.112;8.648;2023-11-21T06:30:50;61.83;;;24.65;;
72261;SDS011;60173;52.112;8.648;2023-11-21T06:33:17;59.47;;;24.42;;
72261;SDS011;60173;52.112;8.648;2023-11-21T06:35:43;63.03;;;25.27;;
72261;SDS011;60173;52.112;8.648;2023-11-21T06:38:10;60.50;;;26.25;;
72261;SDS011;60173;52.112;8.648;2023-11-21T06:40:36;65.03;;;25.10;;
72261;SDS011;60173;52.112;8.648;2023-11-21T06:43:03;57.30;;;24.60;;
72261;SDS011;60173;52.112;8.648;2023-11-21T06:45:29;56.88;;;25.52;;
72261;SDS011;60173;52.112;8.648;2023-11-21T06:47:56;52.08;;;23.88;;
72261;SDS011;60173;52.112;8.648;2023-11-21T06:50:23;60.80;;;25.42;;
72261;SDS011;60173;52.112;8.648;2023-11-21T06:52:49;61.30;;;25.48;;
72261;SDS011;60173;52.112;8.648;2023-11-21T06:55:15;58.85;;;25.75;;
72261;SDS011;60173;52.112;8.648;2023-11-21T06:57:42;61.00;;;25.40;;
72261;SDS011;60173;52.112;8.648;2023-11-21T07:00:09;70.95;;;27.35;;
72261;SDS011;60173;52.112;8.648;2023-11-21T07:02:36;59.72;;;25.10;;
72261;SDS011;60173;52.112;8.648;2023-11-21T07:05:03;66.05;;;27.30;;
72261;SDS011;60173;52.112;8.648;2023-11-21T07:07:30;62.92;;;26.23;;
72261;SDS011;60173;52.112;8.648;2023-11-21T07:09:56;59.03;;;26.70;;
72261;SDS011;60173;52.112;8.648;2023-11-21T07:12:23;61.08;;;28.10;;
72261;SDS011;60173;52.112;8.648;2023-11-21T07:14:49;62.63;;;27.38;;
72261;SDS011;60173;52.112;8.648;2023-11-21T07:17:16;69.65;;;28.08;;
72261;SDS011;60173;52.112;8.648;2023-11-21T07:19:42;70.07;;;30.05;;
72261;SDS011;60173;52.112;8.648;2023-11-21T07:22:09;72.97;;;30.23;;
72261;SDS011;60173;52.112;8.648;2023-11-21T07:24:35;79.20;;;30.80;;
72261;SDS011;60173;52.112;8.648;2023-11-21T07:27:02;81.35;;;32.20;;
72261;SDS011;60173;52.112;8.648;2023-11-21T07:29:29;70.65;;;29.75;;
72261;SDS011;60173;52.112;8.648;2023-11-21T07:31:56;93.22;;;32.63;;
72261;SDS011;60173;52.112;8.648;2023-11-21T07:34:23;82.15;;;31.17;;
72261;SDS011;60173;52.112;8.648;2023-11-21T07:36:49;86.15;;;31.42;;
72261;SDS011;60173;52.112;8.648;2023-11-21T07:39:16;83.40;;;30.55;;
72261;SDS011;60173;52.112;8.648;2023-11-21T07:41:42;77.22;;;29.25;;
72261;SDS011;60173;52.112;8.648;2023-11-21T07:44:09;93.90;;;32.25;;
72261;SDS011;60173;52.112;8.648;2023-11-21T07:46:35;90.70;;;30.95;;
72261;SDS011;60173;52.112;8.648;2023-11-21T07:49:02;102.72;;;32.35;;
72261;SDS011;60173;52.112;8.648;2023-11-21T07:51:29;116.55;;;33.78;;
72261;SDS011;60173;52.112;8.648;2023-11-21T07:53:55;105.40;;;32.10;;
72261;SDS011;60173;52.112;8.648;2023-11-21T07:56:21;120.13;;;33.55;;
72261;SDS011;60173;52.112;8.648;2023-11-21T07:58:48;114.05;;;31.98;;
72261;SDS011;60173;52.112;8.648;2023-11-21T08:01:17;114.50;;;32.95;;
72261;SDS011;60173;52.112;8.648;2023-11-21T08:03:43;96.13;;;30.38;;
72261;SDS011;60173;52.112;8.648;2023-11-21T08:06:10;98.90;;;29.30;;
72261;SDS011;60173;52.112;8.648;2023-11-21T08:08:36;94.93;;;30.08;;
72261;SDS011;60173;52.112;8.648;2023-11-21T08:11:03;89.68;;;29.35;;
72261;SDS011;60173;52.112;8.648;2023-11-21T08:13:29;104.13;;;32.42;;
72261;SDS011;60173;52.112;8.648;2023-11-21T08:15:56;92.80;;;29.65;;
72261;SDS011;60173;52.112;8.648;2023-11-21T08:18:24;92.35;;;29.10;;
72261;SDS011;60173;52.112;8.648;2023-11-21T08:20:50;88.25;;;27.88;;
72261;SDS011;60173;52.112;8.648;2023-11-21T08:23:17;73.85;;;24.58;;
72261;SDS011;60173;52.112;8.648;2023-11-21T08:25:44;70.95;;;24.88;;
72261;SDS011;60173;52.112;8.648;2023-11-21T08:28:11;63.78;;;23.05;;
72261;SDS011;60173;52.112;8.648;2023-11-21T08:30:38;56.83;;;20.75;;
72261;SDS011;60173;52.112;8.648;2023-11-21T08:33:04;61.05;;;23.17;;
72261;SDS011;60173;52.112;8.648;2023-11-21T08:35:31;56.17;;;20.35;;
72261;SDS011;60173;52.112;8.648;2023-11-21T08:37:57;50.60;;;19.55;;
72261;SDS011;60173;52.112;8.648;2023-11-21T08:40:24;54.95;;;20.67;;
72261;SDS011;60173;52.112;8.648;2023-11-21T08:42:51;46.08;;;18.90;;
72261;SDS011;60173;52.112;8.648;2023-11-21T08:45:17;45.55;;;19.58;;
72261;SDS011;60173;52.112;8.648;2023-11-21T08:47:45;51.20;;;20.98;;
72261;SDS011;60173;52.112;8.648;2023-11-21T08:50:11;47.60;;;20.10;;
72261;SDS011;60173;52.112;8.648;2023-11-21T08:52:38;41.10;;;20.00;;
72261;SDS011;60173;52.112;8.648;2023-11-21T08:55:05;52.05;;;22.33;;
72261;SDS011;60173;52.112;8.648;2023-11-21T08:57:32;52.33;;;22.88;;
72261;SDS011;60173;52.112;8.648;2023-11-21T08:59:58;51.08;;;23.45;;
72261;SDS011;60173;52.112;8.648;2023-11-21T09:02:27;40.95;;;20.85;;
72261;SDS011;60173;52.112;8.648;2023-11-21T09:04:54;51.60;;;22.95;;
72261;SDS011;60173;52.112;8.648;2023-11-21T09:07:21;39.17;;;20.13;;
72261;SDS011;60173;52.112;8.648;2023-11-21T09:09:47;43.80;;;19.77;;
72261;SDS011;60173;52.112;8.648;2023-11-21T09:12:14;41.92;;;19.05;;
72261;SDS011;60173;52.112;8.648;2023-11-21T09:14:41;31.38;;;15.43;;
72261;SDS011;60173;52.112;8.648;2023-11-21T09:17:09;34.58;;;16.35;;
72261;SDS011;60173;52.112;8.648;2023-11-21T09:19:37;36.30;;;16.17;;
72261;SDS011;60173;52.112;8.648;2023-11-21T09:22:04;44.95;;;18.48;;
72261;SDS011;60173;52.112;8.648;2023-11-21T09:24:34;36.88;;;16.23;;
72261;SDS011;60173;52.112;8.648;2023-11-21T09:27:02;47.15;;;17.27;;
72261;SDS011;60173;52.112;8.648;2023-11-21T09:29:29;39.90;;;16.48;;
72261;SDS011;60173;52.112;8.648;2023-11-21T09:31:56;35.17;;;13.88;;
72261;SDS011;60173;52.112;8.648;2023-11-21T09:34:22;38.60;;;14.70;;
72261;SDS011;60173;52.112;8.648;2023-11-21T09:36:49;34.08;;;12.65;;
72261;SDS011;60173;52.112;8.648;2023-11-21T09:39:15;22.70;;;11.75;;
72261;SDS011;60173;52.112;8.648;2023-11-21T09:41:51;35.20;;;14.18;;
72261;SDS011;60173;52.112;8.648;2023-11-21T09:44:27;33.97;;;13.75;;
72261;SDS011;60173;52.112;8.648;2023-11-21T09:47:02;36.30;;;14.00;;
72261;SDS011;60173;52.112;8.648;2023-11-21T09:49:29;37.97;;;12.48;;
72261;SDS011;60173;52.112;8.648;2023-11-21T09:52:01;28.60;;;12.15;;
72261;SDS011;60173;52.112;8.648;2023-11-21T09:54:28;43.60;;;13.48;;
72261;SDS011;60173;52.112;8.648;2023-11-21T09:56:54;24.25;;;12.15;;
72261;SDS011;60173;52.112;8.648;2023-11-21T09:59:21;24.17;;;11.02;;
72261;SDS011;60173;52.112;8.648;2023-11-21T10:01:47;29.77;;;12.45;;
72261;SDS011;60173;52.112;8.648;2023-11-21T10:04:14;25.95;;;11.82;;
72261;SDS011;60173;52.112;8.648;2023-11-21T10:06:41;24.23;;;12.40;;
72261;SDS011;60173;52.112;8.648;2023-11-21T10:09:11;34.25;;;12.48;;
72261;SDS011;60173;52.112;8.648;2023-11-21T10:11:43;27.77;;;12.00;;
72261;SDS011;60173;52.112;8.648;2023-11-21T10:14:10;31.70;;;11.20;;
72261;SDS011;60173;52.112;8.648;2023-11-21T10:16:38;33.42;;;13.60;;
72261;SDS011;60173;52.112;8.648;2023-11-21T10:19:05;34.55;;;13.88;;
72261;SDS011;60173;52.112;8.648;2023-11-21T10:21:37;31.38;;;14.48;;
72261;SDS011;60173;52.112;8.648;2023-11-21T10:24:05;33.78;;;15.25;;
72261;SDS011;60173;52.112;8.648;2023-11-21T10:26:32;32.83;;;14.25;;
72261;SDS011;60173;52.112;8.648;2023-11-21T10:29:12;27.35;;;12.75;;
72261;SDS011;60173;52.112;8.648;2023-11-21T10:31:40;22.13;;;12.55;;
72261;SDS011;60173;52.112;8.648;2023-11-21T10:34:13;26.95;;;14.15;;
72261;SDS011;60173;52.112;8.648;2023-11-21T10:36:40;27.25;;;15.50;;
72261;SDS011;60173;52.112;8.648;2023-11-21T10:39:07;19.60;;;12.20;;
72261;SDS011;60173;52.112;8.648;2023-11-21T10:41:33;26.88;;;15.10;;
72261;SDS011;60173;52.112;8.648;2023-11-21T10:44:00;20.27;;;12.65;;
72261;SDS011;60173;52.112;8.648;2023-11-21T10:46:27;22.08;;;12.48;;
72261;SDS011;60173;52.112;8.648;2023-11-21T10:48:53;21.98;;;12.82;;
72261;SDS011;60173;52.112;8.648;2023-11-21T10:51:21;24.10;;;12.88;;
72261;SDS011;60173;52.112;8.648;2023-11-21T10:53:47;19.42;;;11.57;;
72261;SDS011;60173;52.112;8.648;2023-11-21T10:56:14;19.15;;;10.63;;
72261;SDS011;60173;52.112;8.648;2023-11-21T10:58:40;16.73;;;10.23;;
72261;SDS011;60173;52.112;8.648;2023-11-21T11:01:07;17.00;;;10.38;;
72261;SDS011;60173;52.112;8.648;2023-11-21T11:03:34;18.60;;;10.05;;
72261;SDS011;60173;52.112;8.648;2023-11-21T11:06:02;15.07;;;10.32;;
72261;SDS011;60173;52.112;8.648;2023-11-21T11:08:31;20.70;;;11.60;;
72261;SDS011;60173;52.112;8.648;2023-11-21T11:10:58;21.52;;;12.65;;
72261;SDS011;60173;52.112;8.648;2023-11-21T11:13:25;26.83;;;16.40;;
72261;SDS011;60173;52.112;8.648;2023-11-21T11:15:51;26.38;;;15.00;;
72261;SDS011;60173;52.112;8.648;2023-11-21T11:18:24;23.83;;;14.15;;
72261;SDS011;60173;52.112;8.648;2023-11-21T11:20:50;21.27;;;13.77;;
72261;SDS011;60173;52.112;8.648;2023-11-21T11:23:29;17.73;;;11.02;;
72261;SDS011;60173;52.112;8.648;2023-11-21T11:26:10;21.25;;;11.70;;
72261;SDS011;60173;52.112;8.648;2023-11-21T11:28:47;19.92;;;11.82;;
72261;SDS011;60173;52.112;8.648;2023-11-21T11:31:27;19.30;;;11.50;;
72261;SDS011;60173;52.112;8.648;2023-11-21T11:36:44;19.00;;;11.43;;
72261;SDS011;60173;52.112;8.648;2023-11-21T11:42:06;17.60;;;10.60;;
72261;SDS011;60173;52.112;8.648;2023-11-21T11:47:15;15.30;;;10.45;;
72261;SDS011;60173;52.112;8.648;2023-11-21T11:49:57;18.55;;;10.30;;
72261;SDS011;60173;52.112;8.648;2023-11-21T11:52:36;17.05;;;10.40;;
72261;SDS011;60173;52.112;8.648;2023-11-21T11:55:17;20.95;;;10.90;;
72261;SDS011;60173;52.112;8.648;2023-11-21T11:57:48;17.88;;;10.65;;
72261;SDS011;60173;52.112;8.648;2023-11-21T12:00:20;22.42;;;13.07;;
72261;SDS011;60173;52.112;8.648;2023-11-21T12:03:02;20.40;;;12.43;;
72261;SDS011;60173;52.112;8.648;2023-11-21T12:05:30;21.02;;;13.10;;
72261;SDS011;60173;52.112;8.648;2023-11-21T12:07:59;17.60;;;12.10;;
72261;SDS011;60173;52.112;8.648;2023-11-21T12:10:28;22.20;;;13.88;;
72261;SDS011;60173;52.112;8.648;2023-11-21T12:13:06;21.35;;;13.45;;
72261;SDS011;60173;52.112;8.648;2023-11-21T12:15:34;20.98;;;12.18;;
72261;SDS011;60173;52.112;8.648;2023-11-21T12:18:01;23.58;;;13.82;;
72261;SDS011;60173;52.112;8.648;2023-11-21T12:20:28;21.85;;;12.65;;
72261;SDS011;60173;52.112;8.648;2023-11-21T12:22:56;20.73;;;13.65;;
72261;SDS011;60173;52.112;8.648;2023-11-21T12:25:26;20.75;;;13.05;;
72261;SDS011;60173;52.112;8.648;2023-11-21T12:27:54;18.33;;;12.48;;
72261;SDS011;60173;52.112;8.648;2023-11-21T12:30:22;22.27;;;12.27;;
72261;SDS011;60173;52.112;8.648;2023-11-21T12:32:53;18.65;;;12.13;;
72261;SDS011;60173;52.112;8.648;2023-11-21T12:35:25;18.42;;;11.75;;
72261;SDS011;60173;52.112;8.648;2023-11-21T12:37:56;21.35;;;12.43;;
72261;SDS011;60173;52.112;8.648;2023-11-21T12:40:23;19.13;;;10.75;;
72261;SDS011;60173;52.112;8.648;2023-11-21T12:42:53;16.63;;;9.82;;
72261;SDS011;60173;52.112;8.648;2023-11-21T12:45:22;14.65;;;8.90;;
72261;SDS011;60173;52.112;8.648;2023-11-21T12:47:50;16.25;;;9.25;;
72261;SDS011;60173;52.112;8.648;2023-11-21T12:50:18;12.95;;;8.45;;
72261;SDS011;60173;52.112;8.648;2023-11-21T12:52:46;13.55;;;8.95;;
72261;SDS011;60173;52.112;8.648;2023-11-21T12:55:13;15.93;;;8.77;;
72261;SDS011;60173;52.112;8.648;2023-11-21T12:57:43;14.85;;;9.93;;
72261;SDS011;60173;52.112;8.648;2023-11-21T13:00:11;14.05;;;8.65;;
72261;SDS011;60173;52.112;8.648;2023-11-21T13:02:41;13.73;;;8.43;;
72261;SDS011;60173;52.112;8.648;2023-11-21T13:05:07;15.35;;;8.93;;
72261;SDS011;60173;52.112;8.648;2023-11-21T13:07:41;17.30;;;9.20;;
72261;SDS011;60173;52.112;8.648;2023-11-21T13:10:08;14.43;;;8.63;;
72261;SDS011;60173;52.112;8.648;2023-11-21T13:12:35;13.27;;;8.32;;
72261;SDS011;60173;52.112;8.648;2023-11-21T13:15:03;13.63;;;8.25;;
72261;SDS011;60173;52.112;8.648;2023-11-21T13:17:31;13.73;;;8.70;;
72261;SDS011;60173;52.112;8.648;2023-11-21T13:19:58;13.43;;;8.68;;
72261;SDS011;60173;52.112;8.648;2023-11-21T13:22:24;14.75;;;9.18;;
72261;SDS011;60173;52.112;8.648;2023-11-21T13:24:51;16.80;;;8.90;;
72261;SDS011;60173;52.112;8.648;2023-11-21T13:27:17;18.90;;;9.13;;
72261;SDS011;60173;52.112;8.648;2023-11-21T13:29:44;18.90;;;9.10;;
72261;SDS011;60173;52.112;8.648;2023-11-21T13:32:10;14.00;;;8.32;;
72261;SDS011;60173;52.112;8.648;2023-11-21T13:34:37;19.83;;;8.75;;
72261;SDS011;60173;52.112;8.648;2023-11-21T13:37:03;16.08;;;9.40;;
72261;SDS011;60173;52.112;8.648;2023-11-21T13:39:30;13.80;;;8.95;;
72261;SDS011;60173;52.112;8.648;2023-11-21T13:41:56;12.60;;;8.05;;
72261;SDS011;60173;52.112;8.648;2023-11-21T13:44:23;15.02;;;9.20;;
72261;SDS011;60173;52.112;8.648;2023-11-21T13:46:50;14.15;;;9.05;;
72261;SDS011;60173;52.112;8.648;2023-11-21T13:49:16;15.05;;;9.13;;
72261;SDS011;60173;52.112;8.648;2023-11-21T13:51:43;13.40;;;9.43;;
72261;SDS011;60173;52.112;8.648;2023-11-21T13:54:09;15.57;;;8.25;;
72261;SDS011;60173;52.112;8.648;2023-11-21T13:56:37;16.10;;;9.18;;
72261;SDS011;60173;52.112;8.648;2023-11-21T13:59:04;16.00;;;8.88;;
72261;SDS011;60173;52.112;8.648;2023-11-21T14:01:30;13.48;;;8.77;;
72261;SDS011;60173;52.112;8.648;2023-11-21T14:04:00;13.77;;;7.82;;
72261;SDS011;60173;52.112;8.648;2023-11-21T14:06:28;10.40;;;7.20;;
72261;SDS011;60173;52.112;8.648;2023-11-21T14:08:54;14.63;;;8.65;;
72261;SDS011;60173;52.112;8.648;2023-11-21T14:11:21;12.55;;;7.90;;
72261;SDS011;60173;52.112;8.648;2023-11-21T14:13:49;12.77;;;7.53;;
72261;SDS011;60173;52.112;8.648;2023-11-21T14:16:16;13.85;;;8.20;;
72261;SDS011;60173;52.112;8.648;2023-11-21T14:18:43;15.52;;;7.82;;
72261;SDS011;60173;52.112;8.648;2023-11-21T14:21:09;10.35;;;6.97;;
72261;SDS011;60173;52.112;8.648;2023-11-21T14:23:36;13.35;;;7.20;;
72261;SDS011;60173;52.112;8.648;2023-11-21T14:26:02;9.85;;;6.47;;
72261;SDS011;60173;52.112;8.648;2023-11-21T14:28:29;9.95;;;6.68;;
72261;SDS011;60173;52.112;8.648;2023-11-21T14:30:55;11.05;;;7.18;;
72261;SDS011;60173;52.112;8.648;2023-11-21T14:33:22;13.23;;;7.85;;